Time;durP1;ratioP1;P1;durP2;ratioP2;P2;SDS_P1;SDS_P2;PMS_P1;PMS_P2;Temp;Humidity;BMP_temperature;BMP_pressure;BME280_temperature;BME280_humidity;BME280_pressure;Samples;Min_cycle;Max_cycle;Signal;HPM_P1;HPM_P2
2022/05/04 00:02:25;;;;;;;15.55;11.00;;;24.10;99.90;;;;;;5029732;28;20030;-46
2022/05/04 00:04:51;;;;;;;13.10;10.55;;;24.10;99.90;;;;;;5029842;28;20071;-46
2022/05/04 00:07:17;;;;;;;14.55;10.48;;;24.10;99.90;;;;;;5031014;28;20060;-46
2022/05/04 00:09:42;;;;;;;14.65;11.15;;;24.10;99.90;;;;;;5030868;28;20026;-46
2022/05/04 00:12:09;;;;;;;15.07;11.10;;;24.10;99.90;;;;;;5030950;28;20026;-46
2022/05/04 00:14:35;;;;;;;18.05;11.65;;;24.10;99.90;;;;;;5031314;28;20036;-46
2022/05/04 00:19:45;;;;;;;15.38;12.27;;;24.10;99.90;;;;;;5034928;28;20064;-46
2022/05/04 00:22:16;;;;;;;14.85;10.98;;;24.10;99.90;;;;;;5034624;28;20057;-47
2022/05/04 00:24:42;;;;;;;13.93;11.18;;;24.10;99.90;;;;;;5034653;28;20026;-45
2022/05/04 00:27:07;;;;;;;15.98;12.98;;;24.10;99.90;;;;;;5034599;28;20391;-45
2022/05/04 00:29:33;;;;;;;16.45;12.23;;;24.10;99.90;;;;;;5034789;28;20101;-46
2022/05/04 00:32:18;;;;;;;16.13;12.65;;;24.10;99.90;;;;;;5034540;28;20600;-45
2022/05/04 00:34:44;;;;;;;15.57;12.48;;;24.10;99.90;;;;;;5034211;28;20044;-46
2022/05/04 00:37:10;;;;;;;15.57;11.35;;;24.10;99.90;;;;;;5034378;28;20072;-46
2022/05/04 00:39:55;;;;;;;13.85;11.38;;;24.10;99.90;;;;;;5033098;28;20484;-46
2022/05/04 00:42:21;;;;;;;15.25;11.80;;;24.10;99.90;;;;;;5034372;28;20045;-46
2022/05/04 00:45:06;;;;;;;13.80;11.20;;;24.10;99.90;;;;;;5034200;28;20535;-46
2022/05/04 00:47:32;;;;;;;14.70;11.82;;;24.00;99.90;;;;;;5034375;28;20271;-46
2022/05/04 00:50:04;;;;;;;14.73;11.32;;;24.10;99.90;;;;;;5034170;28;20465;-46
2022/05/04 00:52:32;;;;;;;14.13;10.65;;;24.10;99.90;;;;;;5034152;28;20470;-46
2022/05/04 00:55:16;;;;;;;;;;;24.10;99.90;;;;;;5034433;28;20477;-46
2022/05/04 01:00:28;;;;;;;13.98;10.95;;;24.10;99.90;;;;;;5034216;28;20092;-46
2022/05/04 01:02:54;;;;;;;13.90;11.25;;;24.00;99.90;;;;;;5034035;28;20056;-46
2022/05/04 01:05:20;;;;;;;15.18;11.70;;;24.00;99.90;;;;;;5033876;28;20129;-46
2022/05/04 01:07:46;;;;;;;13.05;11.38;;;24.00;99.90;;;;;;5033949;28;20034;-46
2022/05/04 01:10:14;;;;;;;14.32;10.90;;;24.00;99.90;;;;;;5033834;28;20021;-46
2022/05/04 01:12:53;;;;;;;11.73;9.60;;;24.00;99.90;;;;;;5033778;28;20034;-46
2022/05/04 01:15:21;;;;;;;13.88;10.43;;;24.00;99.90;;;;;;5033685;28;20029;-46
2022/05/04 01:17:50;;;;;;;14.52;10.57;;;24.00;99.90;;;;;;5033693;28;20017;-45
2022/05/04 01:20:17;;;;;;;14.13;10.52;;;24.00;99.90;;;;;;5032405;28;20513;-46
2022/05/04 01:22:43;;;;;;;11.07;9.43;;;24.00;99.90;;;;;;5033506;28;20036;-45
2022/05/04 01:25:11;;;;;;;12.55;9.77;;;24.00;99.90;;;;;;5033420;28;20108;-46
2022/05/04 01:27:37;;;;;;;13.55;10.25;;;24.00;99.90;;;;;;5032449;28;20021;-45
2022/05/04 01:30:04;;;;;;;13.00;9.95;;;24.00;99.90;;;;;;5032243;28;20021;-45
2022/05/04 01:32:30;;;;;;;12.82;9.57;;;24.00;99.90;;;;;;5033514;28;20030;-46
2022/05/04 01:34:56;;;;;;;11.30;9.57;;;24.00;99.90;;;;;;5033235;28;20056;-45
2022/05/04 01:37:22;;;;;;;13.00;10.27;;;23.90;99.90;;;;;;5033273;28;20025;-45
2022/05/04 01:39:47;;;;;;;13.18;9.95;;;24.00;99.90;;;;;;5033244;28;20021;-45
2022/05/04 01:42:13;;;;;;;12.73;9.93;;;24.00;99.90;;;;;;5033232;28;20508;-46
2022/05/04 01:44:41;;;;;;;12.40;9.63;;;24.00;99.90;;;;;;5033137;28;20029;-45
2022/05/04 01:47:08;;;;;;;12.40;9.30;;;23.90;99.90;;;;;;5033368;28;20056;-45
2022/05/04 01:49:34;;;;;;;12.23;9.97;;;23.90;99.90;;;;;;5033018;28;20033;-45
2022/05/04 01:52:00;;;;;;;13.30;10.13;;;23.90;99.90;;;;;;5033093;28;20036;-45
2022/05/04 01:54:26;;;;;;;13.35;10.27;;;23.90;99.90;;;;;;5032806;28;20034;-45
2022/05/04 01:56:52;;;;;;;10.82;8.85;;;23.90;99.90;;;;;;5033044;28;20091;-45
2022/05/04 01:59:18;;;;;;;12.07;9.15;;;23.90;99.90;;;;;;5032681;28;20020;-45
2022/05/04 02:01:44;;;;;;;13.85;9.88;;;23.90;99.90;;;;;;5032671;28;20037;-45
2022/05/04 02:04:10;;;;;;;12.02;9.95;;;23.90;99.90;;;;;;5032687;28;20030;-45
2022/05/04 02:06:37;;;;;;;13.50;9.55;;;23.90;99.90;;;;;;5032792;28;20392;-45
2022/05/04 02:09:04;;;;;;;10.18;8.43;;;23.90;99.90;;;;;;5032607;28;20060;-45
2022/05/04 02:11:32;;;;;;;11.27;8.93;;;23.90;99.90;;;;;;5032629;28;20386;-46
2022/05/04 02:13:59;;;;;;;12.77;9.20;;;23.90;99.90;;;;;;5032535;28;20045;-46
2022/05/04 02:16:25;;;;;;;12.13;9.17;;;23.90;99.90;;;;;;5032783;28;20045;-47
2022/05/04 02:18:51;;;;;;;11.68;9.55;;;23.90;99.90;;;;;;5032428;28;20751;-46
2022/05/04 02:21:16;;;;;;;11.82;8.60;;;23.90;99.90;;;;;;5032464;28;20404;-46
2022/05/04 02:23:43;;;;;;;9.38;8.18;;;23.80;99.90;;;;;;5032454;28;20207;-47
2022/05/04 02:26:09;;;;;;;11.93;8.60;;;23.80;99.90;;;;;;5032393;28;20018;-48
2022/05/04 02:28:34;;;;;;;10.55;8.20;;;23.80;99.90;;;;;;5032174;28;20101;-46
2022/05/04 02:31:00;;;;;;;11.13;8.55;;;23.80;99.90;;;;;;5032211;28;20203;-46
2022/05/04 02:33:26;;;;;;;10.38;8.18;;;23.80;99.90;;;;;;5031182;28;20048;-46
2022/05/04 02:38:36;;;;;;;10.15;7.80;;;23.80;99.90;;;;;;5031734;28;20350;-46
2022/05/04 02:41:02;;;;;;;10.00;7.47;;;23.80;99.90;;;;;;5032004;28;20025;-47
2022/05/04 02:43:28;;;;;;;10.43;8.10;;;23.80;99.90;;;;;;5031849;28;20021;-46
2022/05/04 02:45:58;;;;;;;11.38;8.20;;;23.80;99.90;;;;;;5032236;28;20108;-45
2022/05/04 02:51:08;;;;;;;11.82;8.68;;;23.80;99.90;;;;;;5031926;28;20575;-46
2022/05/04 02:53:34;;;;;;;9.43;7.60;;;23.80;99.90;;;;;;5031707;28;20057;-46
2022/05/04 02:56:01;;;;;;;9.93;7.57;;;23.80;99.90;;;;;;5031881;28;20104;-46
2022/05/04 02:58:27;;;;;;;8.85;7.07;;;23.80;99.90;;;;;;5031980;28;20021;-45
2022/05/04 03:00:53;;;;;;;10.25;7.55;;;23.80;99.90;;;;;;5044764;22;20500;-52
2022/05/04 03:03:19;;;;;;;9.23;7.03;;;23.80;99.90;;;;;;5031790;28;20040;-54
2022/05/04 03:05:45;;;;;;;9.00;7.20;;;23.80;99.90;;;;;;5031625;28;20120;-52
2022/05/04 03:08:11;;;;;;;9.38;7.57;;;23.80;99.90;;;;;;5031720;28;20097;-52
2022/05/04 03:13:21;;;;;;;10.45;6.97;;;23.80;99.90;;;;;;5031579;28;20615;-53
2022/05/04 03:15:47;;;;;;;10.02;7.38;;;23.70;99.90;;;;;;5031320;28;20041;-53
2022/05/04 03:18:13;;;;;;;8.88;6.97;;;23.70;99.90;;;;;;5031357;28;20501;-53
2022/05/04 03:20:38;;;;;;;8.98;7.15;;;23.80;99.90;;;;;;5031402;28;20514;-52
2022/05/04 03:23:04;;;;;;;8.52;6.93;;;23.70;99.90;;;;;;5031430;28;20099;-52
2022/05/04 03:25:30;;;;;;;7.57;6.70;;;23.70;99.90;;;;;;5031238;28;20025;-52
2022/05/04 03:27:56;;;;;;;8.50;6.47;;;23.70;99.90;;;;;;5030224;28;20033;-52
2022/05/04 03:30:21;;;;;;;8.88;6.82;;;23.70;99.90;;;;;;5031147;28;20026;-60
2022/05/04 03:32:47;;;;;;;8.32;6.53;;;23.70;99.90;;;;;;5031379;28;20034;-53
2022/05/04 03:35:13;;;;;;;7.90;6.38;;;23.70;99.90;;;;;;5031337;28;20043;-53
2022/05/04 03:37:38;;;;;;;9.85;7.53;;;23.70;99.90;;;;;;5031229;28;20056;-53
2022/05/04 03:40:05;;;;;;;8.45;6.88;;;23.70;99.90;;;;;;5031279;28;20029;-54
2022/05/04 03:42:31;;;;;;;7.85;6.53;;;23.70;99.90;;;;;;5031342;28;20382;-52
2022/05/04 03:44:56;;;;;;;8.18;5.82;;;23.70;99.90;;;;;;5031354;28;20033;-53
2022/05/04 03:47:22;;;;;;;8.60;6.45;;;23.70;99.90;;;;;;5031254;28;20025;-56
2022/05/04 03:49:48;;;;;;;6.68;5.88;;;23.70;99.90;;;;;;5032171;28;20029;-53
2022/05/04 03:52:14;;;;;;;8.05;6.45;;;23.70;99.90;;;;;;5035287;28;20540;-53
2022/05/04 03:54:40;;;;;;;8.43;6.88;;;23.70;99.90;;;;;;5035070;28;20026;-53
2022/05/04 03:57:06;;;;;;;8.10;6.40;;;23.70;99.90;;;;;;5035047;28;20029;-52
2022/05/04 03:59:32;;;;;;;8.65;6.60;;;23.70;99.90;;;;;;5047709;22;20025;-44
2022/05/04 04:01:58;;;;;;;7.20;6.18;;;23.70;99.90;;;;;;5014306;28;20049;-44
2022/05/04 04:04:24;;;;;;;7.78;6.47;;;23.60;99.90;;;;;;5015357;28;20026;-44
2022/05/04 04:06:49;;;;;;;9.63;7.00;;;23.60;99.90;;;;;;5015188;28;20072;-45
2022/05/04 04:09:16;;;;;;;7.43;5.82;;;23.60;99.90;;;;;;5015256;28;20465;-45
2022/05/04 04:11:42;;;;;;;7.38;6.28;;;23.60;99.90;;;;;;5015141;28;20022;-44
2022/05/04 04:14:09;;;;;;;9.50;6.63;;;23.60;99.90;;;;;;5015021;28;20044;-45
2022/05/04 04:16:35;;;;;;;7.63;5.93;;;23.60;99.90;;;;;;5015181;28;20036;-45
2022/05/04 04:19:01;;;;;;;7.20;5.78;;;23.60;99.90;;;;;;5015145;28;20034;-45
2022/05/04 04:24:11;;;;;;;7.43;6.15;;;23.50;99.90;;;;;;5014828;28;20526;-45
2022/05/04 04:26:38;;;;;;;8.30;6.63;;;23.50;99.90;;;;;;5014784;28;20030;-45
2022/05/04 04:29:04;;;;;;;6.90;5.90;;;23.50;99.90;;;;;;5014791;28;20465;-45
2022/05/04 04:31:30;;;;;;;8.13;6.07;;;23.50;99.90;;;;;;5014998;28;20034;-45
2022/05/04 04:33:56;;;;;;;7.13;6.00;;;23.50;99.90;;;;;;5014724;28;20029;-45
2022/05/04 04:36:22;;;;;;;6.93;6.07;;;23.50;99.90;;;;;;5014669;28;20084;-45
2022/05/04 04:38:48;;;;;;;8.02;6.05;;;23.50;99.90;;;;;;5014601;28;20026;-45
2022/05/04 04:41:14;;;;;;;9.32;6.03;;;23.50;99.90;;;;;;5014599;28;20030;-45
2022/05/04 04:43:40;;;;;;;7.55;5.32;;;23.50;99.90;;;;;;5014562;28;20051;-45
2022/05/04 04:46:24;;;;;;;7.88;5.78;;;23.50;99.90;;;;;;5014437;28;20493;-45
2022/05/04 04:48:50;;;;;;;7.82;5.72;;;23.50;99.90;;;;;;5014367;28;20041;-45
2022/05/04 04:51:16;;;;;;;7.93;6.25;;;23.50;99.90;;;;;;5014297;28;20469;-45
2022/05/04 04:53:42;;;;;;;7.47;5.95;;;23.50;99.90;;;;;;5014144;28;20041;-45
2022/05/04 04:56:08;;;;;;;7.50;5.53;;;23.50;99.90;;;;;;5014365;28;20041;-45
2022/05/04 04:58:34;;;;;;;7.55;5.57;;;23.50;99.90;;;;;;5014516;28;20014;-45
2022/05/04 05:01:00;;;;;;;8.57;5.88;;;23.50;99.90;;;;;;5012738;28;20437;-45
2022/05/04 05:03:26;;;;;;;7.45;5.45;;;23.50;99.90;;;;;;5014389;28;20022;-45
2022/05/04 05:05:51;;;;;;;8.30;5.85;;;23.50;99.90;;;;;;5013998;28;20022;-45
2022/05/04 05:08:17;;;;;;;10.20;5.85;;;23.50;99.90;;;;;;5013957;28;20030;-45
2022/05/04 05:10:43;;;;;;;7.68;6.10;;;23.50;99.90;;;;;;5014033;28;20069;-46
2022/05/04 05:13:09;;;;;;;9.13;6.10;;;23.50;99.90;;;;;;5013974;28;20101;-44
2022/05/04 05:18:21;;;;;;;9.88;5.60;;;23.50;99.90;;;;;;5014130;28;20112;-45
2022/05/04 05:21:05;;;;;;;11.60;6.32;;;23.50;99.90;;;;;;5013856;28;20498;-45
2022/05/04 05:23:31;;;;;;;9.85;6.22;;;23.50;99.90;;;;;;5014004;28;20080;-44
2022/05/04 05:25:57;;;;;;;7.70;5.40;;;23.50;99.90;;;;;;5013682;28;20378;-44
2022/05/04 05:28:23;;;;;;;10.75;6.18;;;23.50;99.90;;;;;;5013839;28;20030;-44
2022/05/04 05:30:48;;;;;;;9.77;5.85;;;23.50;99.90;;;;;;5013602;28;20029;-45
2022/05/04 05:33:14;;;;;;;10.73;5.90;;;23.50;99.90;;;;;;5028841;28;20381;-45
2022/05/04 05:35:40;;;;;;;7.43;5.20;;;23.50;99.90;;;;;;5013545;28;20052;-45
2022/05/04 05:38:08;;;;;;;8.02;5.72;;;23.50;99.90;;;;;;5013535;28;20030;-45
2022/05/04 05:40:34;;;;;;;8.05;5.32;;;23.50;99.90;;;;;;5013634;28;20033;-46
2022/05/04 05:43:00;;;;;;;7.75;5.70;;;23.50;99.90;;;;;;5013454;28;20029;-45
2022/05/04 05:45:26;;;;;;;11.40;6.00;;;23.50;99.90;;;;;;5013312;28;20037;-44
2022/05/04 05:47:52;;;;;;;7.15;5.40;;;23.40;99.90;;;;;;5013318;28;20080;-45
2022/05/04 05:50:17;;;;;;;7.47;5.65;;;23.40;99.90;;;;;;5013305;28;20030;-45
2022/05/04 05:52:44;;;;;;;7.85;5.70;;;23.40;99.90;;;;;;5013185;28;20076;-45
2022/05/04 05:55:10;;;;;;;7.90;5.05;;;23.40;99.90;;;;;;5013092;28;20036;-44
2022/05/04 05:57:36;;;;;;;8.30;5.30;;;23.40;99.90;;;;;;5013135;28;20062;-44
2022/05/04 06:00:03;;;;;;;8.55;5.40;;;23.40;99.90;;;;;;5012824;28;20053;-44
2022/05/04 06:02:29;;;;;;;9.27;6.05;;;23.40;99.90;;;;;;5013080;28;20117;-45
2022/05/04 06:04:55;;;;;;;10.27;5.85;;;23.40;99.90;;;;;;5013014;28;20034;-45
2022/05/04 06:07:21;;;;;;;9.40;5.50;;;23.40;99.90;;;;;;5012962;28;20049;-45
2022/05/04 06:09:47;;;;;;;8.45;5.68;;;23.40;99.90;;;;;;5012897;28;20026;-44
2022/05/04 06:12:13;;;;;;;9.15;4.85;;;23.40;99.90;;;;;;5012293;28;20087;-44
2022/05/04 06:14:39;;;;;;;8.70;5.72;;;23.40;99.90;;;;;;5012642;28;20041;-45
2022/05/04 06:17:04;;;;;;;9.57;5.90;;;23.40;99.90;;;;;;5012826;28;20026;-44
2022/05/04 06:19:30;;;;;;;7.35;5.35;;;23.40;99.90;;;;;;5012553;28;20087;-44
2022/05/04 06:21:56;;;;;;;8.38;5.97;;;23.40;99.90;;;;;;5012639;28;20108;-45
2022/05/04 06:24:22;;;;;;;7.97;5.38;;;23.40;99.90;;;;;;5011311;28;20026;-45
2022/05/04 06:26:48;;;;;;;7.07;4.93;;;23.40;99.90;;;;;;5012511;28;20033;-44
2022/05/04 06:29:13;;;;;;;8.73;5.45;;;23.40;99.90;;;;;;5012641;28;20025;-45
2022/05/04 06:34:24;;;;;;;10.25;6.32;;;23.40;99.90;;;;;;5012340;28;20502;-45
2022/05/04 06:36:50;;;;;;;8.40;5.27;;;23.40;99.90;;;;;;5011091;28;20030;-45
2022/05/04 06:39:16;;;;;;;6.20;4.70;;;23.40;99.90;;;;;;5012190;28;20032;-45
2022/05/04 06:41:42;;;;;;;7.68;5.45;;;23.40;99.90;;;;;;5011018;28;20380;-45
2022/05/04 06:44:08;;;;;;;7.72;5.38;;;23.40;99.90;;;;;;5012523;28;20512;-45
2022/05/04 06:46:41;;;;;;;8.07;5.40;;;23.40;99.90;;;;;;5012198;28;20473;-45
2022/05/04 06:49:11;;;;;;;6.60;4.53;;;23.40;99.90;;;;;;5012323;28;20104;-45
2022/05/04 06:51:37;;;;;;;7.20;4.70;;;23.40;99.90;;;;;;5012268;28;20437;-46
2022/05/04 06:54:02;;;;;;;8.93;5.30;;;23.40;99.90;;;;;;5012114;28;20088;-45
2022/05/04 06:56:47;;;;;;;6.35;4.78;;;23.40;99.90;;;;;;5012121;28;20026;-45
2022/05/04 06:59:13;;;;;;;8.32;5.53;;;23.40;99.90;;;;;;5012020;28;20025;-45
2022/05/04 07:01:38;;;;;;;6.53;5.07;;;23.40;99.90;;;;;;5012003;28;20065;-45
2022/05/04 07:04:04;;;;;;;7.65;4.97;;;23.40;99.90;;;;;;5012008;28;20108;-45
2022/05/04 07:06:30;;;;;;;7.50;5.38;;;23.40;99.90;;;;;;5011991;28;20497;-45
2022/05/04 07:08:56;;;;;;;7.20;4.60;;;23.40;99.90;;;;;;5011889;28;20109;-45
2022/05/04 07:11:22;;;;;;;7.22;4.85;;;23.40;99.90;;;;;;5011818;28;20054;-45
2022/05/04 07:13:48;;;;;;;6.32;4.63;;;23.40;99.90;;;;;;5011682;28;20458;-44
2022/05/04 07:16:15;;;;;;;7.40;4.90;;;23.40;99.90;;;;;;5011594;28;20026;-45
2022/05/04 07:18:40;;;;;;;5.80;4.38;;;23.40;99.90;;;;;;5012063;28;20029;-45
2022/05/04 07:21:06;;;;;;;6.22;4.60;;;23.40;99.90;;;;;;5011740;28;20034;-44
2022/05/04 07:23:32;;;;;;;6.93;4.07;;;23.40;99.90;;;;;;5011489;28;20892;-44
2022/05/04 07:25:58;;;;;;;5.05;4.47;;;23.40;99.90;;;;;;5010963;28;20022;-45
2022/05/04 07:28:26;;;;;;;5.40;4.53;;;23.40;99.90;;;;;;5011551;28;20040;-45
2022/05/04 07:30:52;;;;;;;5.45;4.10;;;23.40;99.90;;;;;;5011600;28;20080;-44
2022/05/04 07:33:18;;;;;;;7.30;4.72;;;23.40;99.90;;;;;;5011500;28;20485;-45
2022/05/04 07:35:43;;;;;;;5.93;4.28;;;23.40;99.90;;;;;;5011322;28;20060;-45
2022/05/04 07:38:09;;;;;;;5.57;4.30;;;23.40;99.90;;;;;;5011622;28;20474;-46
2022/05/04 07:43:19;;;;;;;6.72;4.32;;;23.40;99.90;;;;;;5011699;28;20041;-45
2022/05/04 07:45:45;;;;;;;4.85;4.18;;;23.50;99.90;;;;;;5011385;28;20026;-45
2022/05/04 07:48:11;;;;;;;7.07;4.40;;;23.40;99.90;;;;;;5026675;28;20033;-45
2022/05/04 07:50:37;;;;;;;7.05;4.47;;;23.40;99.90;;;;;;5011285;28;20026;-46
2022/05/04 07:53:03;;;;;;;5.40;4.38;;;23.40;99.90;;;;;;5011352;28;20081;-46
2022/05/04 07:55:30;;;;;;;6.60;4.80;;;23.40;99.90;;;;;;5011103;28;20037;-45
2022/05/04 07:57:57;;;;;;;6.53;4.60;;;23.40;99.90;;;;;;5011429;28;20026;-46
2022/05/04 08:05:52;;;;;;;7.57;4.63;;;23.40;99.90;;;;;;5011460;28;20036;-46
2022/05/04 08:08:18;;;;;;;4.82;3.92;;;23.50;99.90;;;;;;5011211;28;20018;-46
2022/05/04 08:10:44;;;;;;;4.93;3.88;;;23.40;99.90;;;;;;5011400;28;20076;-46
2022/05/04 08:13:10;;;;;;;5.13;3.97;;;23.40;99.90;;;;;;5011137;28;20038;-45
2022/05/04 08:15:37;;;;;;;7.85;4.57;;;23.40;99.90;;;;;;5011057;28;20410;-46
2022/05/04 08:18:03;;;;;;;5.50;3.88;;;23.40;99.90;;;;;;5011139;28;20080;-46
2022/05/04 08:20:29;;;;;;;8.25;4.88;;;23.50;99.90;;;;;;5011027;28;20026;-45
2022/05/04 08:22:55;;;;;;;5.10;4.10;;;23.40;99.90;;;;;;5011039;28;20350;-45
2022/05/04 08:25:21;;;;;;;4.78;3.80;;;23.50;99.90;;;;;;5011167;28;20053;-45
2022/05/04 08:27:47;;;;;;;6.10;3.83;;;23.50;99.90;;;;;;5010997;28;20061;-44
2022/05/04 08:30:14;;;;;;;5.20;3.70;;;23.40;99.90;;;;;;5011172;28;20088;-46
2022/05/04 08:32:44;;;;;;;5.72;3.97;;;23.40;99.90;;;;;;5011019;28;20061;-45
2022/05/04 08:35:12;;;;;;;5.90;3.85;;;23.40;99.90;;;;;;5010879;28;20045;-45
2022/05/04 08:37:37;;;;;;;;;;;23.50;99.90;;;;;;5014830;28;20022;-45
2022/05/04 08:40:04;;;;;;;5.50;4.20;;;23.50;99.90;;;;;;5014396;28;20345;-46
2022/05/04 08:42:29;;;;;;;4.88;3.78;;;23.50;99.90;;;;;;5014551;28;20493;-46
2022/05/04 08:44:57;;;;;;;5.70;3.83;;;23.50;99.90;;;;;;5014502;28;20109;-46
2022/05/04 08:47:28;;;;;;;6.03;3.83;;;23.40;99.90;;;;;;5014565;28;20018;-46
2022/05/04 08:49:54;;;;;;;6.28;4.10;;;23.50;99.90;;;;;;5014434;28;20083;-46
2022/05/04 08:52:21;;;;;;;5.75;3.78;;;23.50;99.90;;;;;;5014317;28;20400;-46
2022/05/04 08:54:51;;;;;;;5.30;3.67;;;23.50;99.90;;;;;;5014320;28;20034;-46
2022/05/04 08:57:17;;;;;;;5.13;3.83;;;23.50;99.90;;;;;;5014445;28;20105;-45
2022/05/04 08:59:43;;;;;;;5.43;3.63;;;23.50;99.90;;;;;;5014232;28;20496;-45
2022/05/04 09:02:10;;;;;;;4.47;3.75;;;23.50;99.90;;;;;;5014145;28;20093;-45
2022/05/04 09:04:41;;;;;;;6.60;3.93;;;23.50;99.90;;;;;;5014100;28;20029;-45
2022/05/04 09:07:23;;;;;;;4.97;3.70;;;23.50;99.90;;;;;;5014173;28;20345;-45
2022/05/04 09:09:50;;;;;;;5.18;3.83;;;23.50;99.90;;;;;;5014048;28;20025;-45
2022/05/04 09:12:16;;;;;;;6.43;4.00;;;23.50;99.90;;;;;;5014195;28;20370;-45
2022/05/04 09:14:42;;;;;;;6.72;4.10;;;23.50;99.90;;;;;;5013851;28;20109;-46
2022/05/04 09:17:15;;;;;;;4.93;3.13;;;23.50;99.90;;;;;;5013824;28;20227;-45
2022/05/04 09:22:41;;;;;;;5.70;3.60;;;23.50;99.90;;;;;;5013828;28;20033;-46
2022/05/04 09:25:18;;;;;;;6.38;3.83;;;23.50;99.90;;;;;;5013878;28;20057;-46
2022/05/04 09:27:47;;;;;;;4.50;3.80;;;23.50;99.90;;;;;;5013477;28;20072;-43
2022/05/04 09:30:14;;;;;;;7.53;4.10;;;23.50;99.90;;;;;;5013548;28;20149;-44
2022/05/04 09:32:41;;;;;;;5.85;3.85;;;23.50;99.90;;;;;;5013625;28;20041;-47
2022/05/04 09:35:17;;;;;;;4.97;3.90;;;23.50;99.90;;;;;;5013364;28;20038;-44
2022/05/04 09:46:06;;;;;;;5.45;3.60;;;23.50;99.90;;;;;;5013392;28;20040;-43
2022/05/04 09:48:51;;;;;;;5.93;3.90;;;23.50;99.90;;;;;;5012205;28;20026;-44
2022/05/04 09:51:17;;;;;;;4.85;3.28;;;23.50;99.90;;;;;;5013325;28;20425;-43
2022/05/04 09:53:43;;;;;;;6.57;4.00;;;23.50;99.90;;;;;;5012955;28;20030;-43
2022/05/04 09:56:09;;;;;;;4.53;3.85;;;23.50;99.90;;;;;;5013127;28;20088;-44
2022/05/04 09:58:35;;;;;;;4.32;3.33;;;23.50;99.90;;;;;;5012967;28;20018;-44
2022/05/04 10:01:02;;;;;;;4.90;3.75;;;23.50;99.90;;;;;;5012778;28;20042;-45
2022/05/04 10:03:28;;;;;;;5.43;4.07;;;23.50;99.90;;;;;;5012818;28;20474;-45
2022/05/04 10:05:57;;;;;;;6.47;3.78;;;23.50;99.90;;;;;;5012807;28;20099;-44
2022/05/04 10:08:23;;;;;;;5.47;4.10;;;23.50;99.90;;;;;;5011581;28;20038;-45
2022/05/04 10:10:52;;;;;;;5.18;3.92;;;23.50;99.90;;;;;;5012871;28;20600;-45
2022/05/04 10:13:19;;;;;;;4.60;3.72;;;23.50;99.90;;;;;;5012905;28;20033;-44
2022/05/04 10:15:50;;;;;;;5.10;3.78;;;23.50;99.90;;;;;;5012571;28;20084;-45
2022/05/04 10:18:26;;;;;;;6.88;4.65;;;23.50;99.90;;;;;;5012344;28;20022;-45
2022/05/04 10:21:01;;;;;;;6.53;4.57;;;23.50;99.90;;;;;;5012693;28;20041;-45
2022/05/04 10:23:31;;;;;;;5.95;4.45;;;23.50;99.90;;;;;;5012309;28;20029;-45
2022/05/04 10:25:57;;;;;;;5.40;3.72;;;23.60;99.90;;;;;;5012387;28;20034;-45
2022/05/04 10:28:23;;;;;;;4.60;4.05;;;23.50;99.90;;;;;;5012386;28;20400;-45
2022/05/04 10:30:55;;;;;;;5.43;4.68;;;23.50;99.90;;;;;;5012724;28;20026;-45
2022/05/04 10:33:39;;;;;;;6.50;4.85;;;23.60;99.90;;;;;;5012532;28;20543;-45
2022/05/04 10:36:15;;;;;;;6.18;4.45;;;23.50;99.90;;;;;;5012271;28;20120;-46
2022/05/04 10:38:46;;;;;;;5.38;4.45;;;23.60;99.90;;;;;;5012228;28;20125;-45
2022/05/04 10:41:14;;;;;;;5.35;4.22;;;23.60;99.90;;;;;;5012012;28;20034;-45
2022/05/04 10:43:45;;;;;;;6.97;4.85;;;23.60;99.90;;;;;;5011853;28;20038;-45
2022/05/04 10:46:19;;;;;;;7.30;5.18;;;23.50;99.90;;;;;;5011901;28;20446;-45
2022/05/04 10:48:51;;;;;;;6.65;4.65;;;23.60;99.90;;;;;;5010649;28;20460;-46
2022/05/04 10:51:18;;;;;;;7.13;5.32;;;23.50;99.90;;;;;;5011984;28;20096;-47
2022/05/04 10:53:47;;;;;;;8.27;4.68;;;23.60;99.90;;;;;;5012085;28;20025;-46
2022/05/04 10:56:21;;;;;;;7.07;5.10;;;23.60;99.90;;;;;;5011805;28;20038;-45
2022/05/04 10:58:49;;;;;;;6.03;4.40;;;23.60;99.90;;;;;;5011793;28;20465;-46
2022/05/04 11:01:34;;;;;;;6.47;5.03;;;23.50;99.90;;;;;;5011772;28;20050;-45
2022/05/04 11:04:11;;;;;;;7.07;5.35;;;23.50;99.90;;;;;;5011770;28;20026;-45
2022/05/04 11:07:05;;;;;;;7.00;5.07;;;23.60;99.90;;;;;;5011832;28;20052;-45
2022/05/04 11:09:40;;;;;;;7.72;5.20;;;23.60;99.90;;;;;;5011692;28;20026;-45
2022/05/04 11:12:08;;;;;;;7.50;5.40;;;23.50;99.90;;;;;;5011689;28;20052;-45
2022/05/04 11:14:34;;;;;;;7.20;5.25;;;23.50;99.90;;;;;;5011677;28;20092;-46
2022/05/04 11:17:02;;;;;;;8.07;5.17;;;23.50;99.90;;;;;;5011949;28;20454;-45
2022/05/04 11:19:30;;;;;;;6.28;4.65;;;23.50;99.90;;;;;;5011705;28;20072;-46
2022/05/04 11:21:57;;;;;;;6.97;5.10;;;23.50;99.90;;;;;;5011579;28;20034;-46
2022/05/04 11:24:25;;;;;;;7.95;5.32;;;23.50;99.90;;;;;;5011780;28;20022;-45
2022/05/04 11:26:52;;;;;;;7.57;5.97;;;23.60;99.90;;;;;;5011524;28;20057;-45
2022/05/04 11:29:19;;;;;;;6.93;5.33;;;23.60;99.90;;;;;;5011503;28;20022;-45
2022/05/04 11:31:47;;;;;;;8.02;6.38;;;23.60;99.90;;;;;;5011369;28;20687;-45
2022/05/04 11:34:17;;;;;;;8.90;6.53;;;23.70;99.90;;;;;;5011366;28;20041;-45
2022/05/04 11:36:48;;;;;;;9.65;6.60;;;23.70;99.90;;;;;;5011392;28;20489;-45
2022/05/04 11:39:16;;;;;;;11.18;6.15;;;23.70;99.90;;;;;;5011464;28;20033;-45
2022/05/04 11:41:44;;;;;;;8.52;6.40;;;23.70;99.90;;;;;;5011495;28;20025;-44
2022/05/04 11:44:11;;;;;;;8.13;6.47;;;23.80;99.90;;;;;;5011558;28;20099;-44
2022/05/04 11:46:37;;;;;;;8.45;6.00;;;23.80;99.90;;;;;;5011378;28;20029;-43
2022/05/04 11:49:10;;;;;;;8.32;6.25;;;23.80;99.90;;;;;;5011317;28;20034;-44
2022/05/04 11:51:36;;;;;;;8.60;6.43;;;23.80;99.90;;;;;;5011285;28;20168;-45
2022/05/04 11:54:03;;;;;;;9.55;6.45;;;23.80;99.90;;;;;;5011309;28;20061;-45
2022/05/04 11:56:29;;;;;;;6.97;5.47;;;23.80;99.90;;;;;;5011381;28;20030;-45
2022/05/04 11:58:55;;;;;;;5.70;4.25;;;23.80;99.90;;;;;;5011348;28;20402;-47
2022/05/04 12:01:22;;;;;;;5.65;3.38;;;23.80;99.90;;;;;;5011127;28;20133;-45
2022/05/04 12:03:48;;;;;;;4.60;3.58;;;23.60;99.90;;;;;;5009829;28;20034;-46
2022/05/04 12:06:14;;;;;;;6.65;2.88;;;23.30;99.90;;;;;;5011052;28;20161;-46
2022/05/04 12:08:41;;;;;;;4.47;2.83;;;23.10;99.90;;;;;;5004231;28;20109;-44
2022/05/04 12:11:09;;;;;;;5.78;3.13;;;22.90;99.90;;;;;;5007997;28;20022;-45
2022/05/04 12:13:40;;;;;;;6.65;2.25;;;22.80;99.90;;;;;;5013203;28;20038;-44
2022/05/04 12:16:06;;;;;;;5.53;3.15;;;22.80;99.90;;;;;;5013343;28;20041;-44
2022/05/04 12:18:34;;;;;;;2.80;2.55;;;22.80;99.90;;;;;;5013860;28;20026;-44
2022/05/04 12:21:15;;;;;;;4.53;2.90;;;22.80;99.90;;;;;;5013809;28;20103;-44
2022/05/04 12:23:44;;;;;;;4.07;2.50;;;22.90;99.90;;;;;;5010999;28;20025;-44
2022/05/04 12:26:12;;;;;;;4.45;3.15;;;22.90;99.90;;;;;;5008519;28;20380;-43
2022/05/04 12:28:39;;;;;;;3.35;2.67;;;23.00;99.90;;;;;;5005105;28;20428;-44
2022/05/04 12:33:50;;;;;;;6.70;3.33;;;23.10;99.90;;;;;;5013779;28;20131;-44
2022/05/04 12:36:18;;;;;;;5.75;3.42;;;23.20;99.90;;;;;;5014045;28;20038;-44
2022/05/04 12:39:05;;;;;;;4.43;3.10;;;23.30;99.90;;;;;;5003197;28;20034;-44
2022/05/04 12:41:33;;;;;;;6.35;3.20;;;23.30;99.90;;;;;;5014025;28;20485;-45
2022/05/04 12:44:04;;;;;;;6.25;3.10;;;23.40;99.90;;;;;;5006744;28;20049;-45
2022/05/04 12:46:30;;;;;;;6.57;2.97;;;23.50;99.90;;;;;;5009736;28;20036;-45
2022/05/04 12:48:56;;;;;;;4.20;2.58;;;23.50;99.90;;;;;;5014265;28;20025;-45
2022/05/04 12:51:24;;;;;;;4.38;2.90;;;23.60;99.90;;;;;;5014280;28;20026;-44
2022/05/04 12:53:51;;;;;;;3.50;3.03;;;23.70;99.90;;;;;;5012875;28;20033;-46
2022/05/04 12:59:03;;;;;;;4.38;2.97;;;23.70;99.90;;;;;;5013990;28;20029;-46
2022/05/04 13:01:32;;;;;;;4.93;3.55;;;23.80;99.90;;;;;;5012806;28;20046;-45
2022/05/04 13:03:58;;;;;;;4.32;2.97;;;23.80;99.90;;;;;;5012522;28;20370;-45
2022/05/04 13:06:25;;;;;;;5.07;2.88;;;23.80;99.90;;;;;;5012950;28;20496;-45
2022/05/04 13:08:51;;;;;;;4.18;3.40;;;23.80;99.90;;;;;;5013361;28;20417;-46
2022/05/04 13:11:18;;;;;;;5.07;3.70;;;23.80;99.90;;;;;;5012938;28;20086;-45
2022/05/04 13:13:44;;;;;;;3.60;3.03;;;23.80;99.90;;;;;;5013358;28;20049;-44
2022/05/04 13:16:10;;;;;;;5.53;3.70;;;23.80;99.90;;;;;;5009540;28;20038;-44
2022/05/04 13:18:39;;;;;;;4.30;3.83;;;23.80;99.90;;;;;;5012071;28;20084;-44
2022/05/04 13:21:06;;;;;;;6.50;3.90;;;23.80;99.90;;;;;;5013269;28;20029;-45
2022/05/04 13:23:32;;;;;;;7.78;3.85;;;23.80;99.90;;;;;;5013490;28;20028;-44
2022/05/04 13:25:58;;;;;;;5.07;3.85;;;23.80;99.90;;;;;;5013131;28;20390;-45
2022/05/04 13:28:42;;;;;;;5.50;4.20;;;23.80;99.90;;;;;;5012742;28;20092;-42
2022/05/04 13:31:08;;;;;;;9.20;4.00;;;23.80;99.90;;;;;;5012874;28;20406;-44
2022/05/04 13:33:34;;;;;;;10.43;4.70;;;23.80;99.90;;;;;;5004284;28;20022;-42